sensor_id;sensor_type;location;lat;lon;timestamp;temperature;humidity
11067;DHT22;29763;50.904;5.530;2023-08-08T00:01:56;12.60;99.90
11067;DHT22;29763;50.904;5.530;2023-08-08T00:04:21;12.60;99.90
11067;DHT22;29763;50.904;5.530;2023-08-08T00:06:50;12.50;99.90
11067;DHT22;29763;50.904;5.530;2023-08-08T00:09:15;12.50;99.90
11067;DHT22;29763;50.904;5.530;2023-08-08T00:11:44;12.40;99.90
11067;DHT22;29763;50.904;5.530;2023-08-08T00:14:11;12.50;99.90
11067;DHT22;29763;50.904;5.530;2023-08-08T00:16:39;12.50;99.90
11067;DHT22;29763;50.904;5.530;2023-08-08T00:19:08;12.50;99.90
11067;DHT22;29763;50.904;5.530;2023-08-08T00:21:34;12.50;99.90
11067;DHT22;29763;50.904;5.530;2023-08-08T00:24:07;12.50;99.90
11067;DHT22;29763;50.904;5.530;2023-08-08T00:26:34;12.50;99.90
11067;DHT22;29763;50.904;5.530;2023-08-08T00:29:02;12.50;99.90
11067;DHT22;29763;50.904;5.530;2023-08-08T00:31:35;12.60;99.90
11067;DHT22;29763;50.904;5.530;2023-08-08T00:34:09;12.60;99.90
11067;DHT22;29763;50.904;5.530;2023-08-08T00:36:36;12.60;99.90
11067;DHT22;29763;50.904;5.530;2023-08-08T00:39:04;12.70;99.90
11067;DHT22;29763;50.904;5.530;2023-08-08T00:41:43;12.70;99.90
11067;DHT22;29763;50.904;5.530;2023-08-08T00:44:13;12.70;99.90
11067;DHT22;29763;50.904;5.530;2023-08-08T00:46:44;12.70;99.90
11067;DHT22;29763;50.904;5.530;2023-08-08T00:49:16;12.70;99.90
11067;DHT22;29763;50.904;5.530;2023-08-08T00:51:43;12.70;99.90
11067;DHT22;29763;50.904;5.530;2023-08-08T00:54:18;12.70;99.90
11067;DHT22;29763;50.904;5.530;2023-08-08T00:56:49;12.70;99.90
11067;DHT22;29763;50.904;5.530;2023-08-08T00:59:19;12.70;99.90
11067;DHT22;29763;50.904;5.530;2023-08-08T01:01:45;12.70;99.90
11067;DHT22;29763;50.904;5.530;2023-08-08T01:04:18;12.70;99.90
11067;DHT22;29763;50.904;5.530;2023-08-08T01:07:02;12.70;99.90
11067;DHT22;29763;50.904;5.530;2023-08-08T01:09:33;12.70;99.90
11067;DHT22;29763;50.904;5.530;2023-08-08T01:12:06;12.70;99.90
11067;DHT22;29763;50.904;5.530;2023-08-08T01:14:41;12.70;99.90
11067;DHT22;29763;50.904;5.530;2023-08-08T01:17:08;12.70;99.90
11067;DHT22;29763;50.904;5.530;2023-08-08T01:19:41;12.80;99.90
11067;DHT22;29763;50.904;5.530;2023-08-08T01:22:22;12.80;99.90
11067;DHT22;29763;50.904;5.530;2023-08-08T01:24:50;12.80;99.90
11067;DHT22;29763;50.904;5.530;2023-08-08T01:27:16;12.80;99.90
11067;DHT22;29763;50.904;5.530;2023-08-08T01:29:49;12.80;99.90
11067;DHT22;29763;50.904;5.530;2023-08-08T01:32:19;12.80;99.90
11067;DHT22;29763;50.904;5.530;2023-08-08T01:34:47;12.80;99.90
11067;DHT22;29763;50.904;5.530;2023-08-08T01:37:32;12.80;99.90
11067;DHT22;29763;50.904;5.530;2023-08-08T01:40:01;12.80;99.90
11067;DHT22;29763;50.904;5.530;2023-08-08T01:42:31;12.80;99.90
11067;DHT22;29763;50.904;5.530;2023-08-08T01:45:09;12.80;99.90
11067;DHT22;29763;50.904;5.530;2023-08-08T01:47:36;12.80;99.90
11067;DHT22;29763;50.904;5.530;2023-08-08T01:50:04;12.70;99.90
11067;DHT22;29763;50.904;5.530;2023-08-08T01:52:32;12.70;99.90
11067;DHT22;29763;50.904;5.530;2023-08-08T01:54:58;12.70;99.90
11067;DHT22;29763;50.904;5.530;2023-08-08T01:57:25;12.70;99.90
11067;DHT22;29763;50.904;5.530;2023-08-08T01:59:54;12.80;99.90
11067;DHT22;29763;50.904;5.530;2023-08-08T02:02:21;12.80;99.90
11067;DHT22;29763;50.904;5.530;2023-08-08T02:04:55;12.70;99.90
11067;DHT22;29763;50.904;5.530;2023-08-08T02:07:21;12.80;99.90
11067;DHT22;29763;50.904;5.530;2023-08-08T02:09:47;12.80;99.90
11067;DHT22;29763;50.904;5.530;2023-08-08T02:12:14;12.80;99.90
11067;DHT22;29763;50.904;5.530;2023-08-08T02:14:41;12.80;99.90
11067;DHT22;29763;50.904;5.530;2023-08-08T02:17:07;12.70;99.90
11067;DHT22;29763;50.904;5.530;2023-08-08T02:19:34;12.70;99.90
11067;DHT22;29763;50.904;5.530;2023-08-08T02:22:00;12.70;99.90
11067;DHT22;29763;50.904;5.530;2023-08-08T02:24:26;12.70;99.90
11067;DHT22;29763;50.904;5.530;2023-08-08T02:26:57;12.70;99.90
11067;DHT22;29763;50.904;5.530;2023-08-08T02:29:24;12.70;99.90
11067;DHT22;29763;50.904;5.530;2023-08-08T02:31:56;12.80;99.90
11067;DHT22;29763;50.904;5.530;2023-08-08T02:34:22;12.70;99.90
11067;DHT22;29763;50.904;5.530;2023-08-08T02:36:49;12.70;99.90
11067;DHT22;29763;50.904;5.530;2023-08-08T02:39:16;12.70;99.90
11067;DHT22;29763;50.904;5.530;2023-08-08T02:41:41;12.70;99.90
11067;DHT22;29763;50.904;5.530;2023-08-08T02:44:08;12.70;99.90
11067;DHT22;29763;50.904;5.530;2023-08-08T02:46:34;12.70;99.90
11067;DHT22;29763;50.904;5.530;2023-08-08T02:49:00;12.70;99.90
11067;DHT22;29763;50.904;5.530;2023-08-08T02:51:32;12.70;99.90
11067;DHT22;29763;50.904;5.530;2023-08-08T02:54:03;12.70;99.90
11067;DHT22;29763;50.904;5.530;2023-08-08T02:56:31;12.70;99.90
11067;DHT22;29763;50.904;5.530;2023-08-08T02:58:57;12.70;99.90
11067;DHT22;29763;50.904;5.530;2023-08-08T03:01:23;12.70;99.90
11067;DHT22;29763;50.904;5.530;2023-08-08T03:04:06;12.70;99.90
11067;DHT22;29763;50.904;5.530;2023-08-08T03:06:33;12.70;99.90
11067;DHT22;29763;50.904;5.530;2023-08-08T03:08:59;12.70;99.90
11067;DHT22;29763;50.904;5.530;2023-08-08T03:11:24;12.70;99.90
11067;DHT22;29763;50.904;5.530;2023-08-08T03:13:50;12.70;99.90
11067;DHT22;29763;50.904;5.530;2023-08-08T03:16:16;12.80;99.90
11067;DHT22;29763;50.904;5.530;2023-08-08T03:18:46;12.70;99.90
11067;DHT22;29763;50.904;5.530;2023-08-08T03:21:12;12.70;99.90
11067;DHT22;29763;50.904;5.530;2023-08-08T03:23:38;12.80;99.90
11067;DHT22;29763;50.904;5.530;2023-08-08T03:26:07;12.80;99.90
11067;DHT22;29763;50.904;5.530;2023-08-08T03:28:33;12.80;99.90
11067;DHT22;29763;50.904;5.530;2023-08-08T03:30:58;12.80;99.90
11067;DHT22;29763;50.904;5.530;2023-08-08T03:33:25;12.80;99.90
11067;DHT22;29763;50.904;5.530;2023-08-08T03:35:52;12.80;99.90
11067;DHT22;29763;50.904;5.530;2023-08-08T03:38:21;12.80;99.90
11067;DHT22;29763;50.904;5.530;2023-08-08T03:40:48;12.80;99.90
11067;DHT22;29763;50.904;5.530;2023-08-08T03:43:15;12.80;99.90
11067;DHT22;29763;50.904;5.530;2023-08-08T03:45:57;12.90;99.90
11067;DHT22;29763;50.904;5.530;2023-08-08T03:48:28;12.90;99.90
11067;DHT22;29763;50.904;5.530;2023-08-08T03:50:54;12.90;99.90
11067;DHT22;29763;50.904;5.530;2023-08-08T03:53:21;12.90;99.90
11067;DHT22;29763;50.904;5.530;2023-08-08T03:55:56;12.80;99.90
11067;DHT22;29763;50.904;5.530;2023-08-08T03:58:31;12.80;99.90
11067;DHT22;29763;50.904;5.530;2023-08-08T04:00:57;12.90;99.90
11067;DHT22;29763;50.904;5.530;2023-08-08T04:03:25;12.80;99.90
11067;DHT22;29763;50.904;5.530;2023-08-08T04:06:08;12.70;99.90
11067;DHT22;29763;50.904;5.530;2023-08-08T04:08:34;12.70;99.90
11067;DHT22;29763;50.904;5.530;2023-08-08T04:11:02;12.80;99.90
11067;DHT22;29763;50.904;5.530;2023-08-08T04:13:29;12.80;99.90
11067;DHT22;29763;50.904;5.530;2023-08-08T04:15:55;12.70;99.90
11067;DHT22;29763;50.904;5.530;2023-08-08T04:18:24;12.80;99.90
11067;DHT22;29763;50.904;5.530;2023-08-08T04:20:51;13.00;99.90
11067;DHT22;29763;50.904;5.530;2023-08-08T04:23:17;12.90;99.90
11067;DHT22;29763;50.904;5.530;2023-08-08T04:25:49;12.70;99.90
11067;DHT22;29763;50.904;5.530;2023-08-08T04:28:18;12.60;99.90
11067;DHT22;29763;50.904;5.530;2023-08-08T04:30:45;12.50;99.90
11067;DHT22;29763;50.904;5.530;2023-08-08T04:33:15;12.50;99.90
11067;DHT22;29763;50.904;5.530;2023-08-08T04:35:42;12.40;99.90
11067;DHT22;29763;50.904;5.530;2023-08-08T04:38:15;12.40;99.90
11067;DHT22;29763;50.904;5.530;2023-08-08T04:40:43;12.40;99.90
11067;DHT22;29763;50.904;5.530;2023-08-08T04:43:09;12.40;99.90
11067;DHT22;29763;50.904;5.530;2023-08-08T04:45:36;12.40;99.90
11067;DHT22;29763;50.904;5.530;2023-08-08T04:48:04;12.40;99.90
11067;DHT22;29763;50.904;5.530;2023-08-08T04:50:31;12.40;99.90
11067;DHT22;29763;50.904;5.530;2023-08-08T04:52:57;12.40;99.90
11067;DHT22;29763;50.904;5.530;2023-08-08T04:55:25;12.40;99.90
11067;DHT22;29763;50.904;5.530;2023-08-08T04:57:52;12.50;99.90
11067;DHT22;29763;50.904;5.530;2023-08-08T05:00:21;12.50;99.90
11067;DHT22;29763;50.904;5.530;2023-08-08T05:02:51;12.50;99.90
11067;DHT22;29763;50.904;5.530;2023-08-08T05:05:17;12.50;99.90
11067;DHT22;29763;50.904;5.530;2023-08-08T05:07:49;12.50;99.90
11067;DHT22;29763;50.904;5.530;2023-08-08T05:10:17;12.60;99.90
11067;DHT22;29763;50.904;5.530;2023-08-08T05:12:51;12.60;99.90
11067;DHT22;29763;50.904;5.530;2023-08-08T05:15:27;12.60;99.90
11067;DHT22;29763;50.904;5.530;2023-08-08T05:17:55;12.70;99.90
11067;DHT22;29763;50.904;5.530;2023-08-08T05:20:27;12.70;99.90
11067;DHT22;29763;50.904;5.530;2023-08-08T05:22:53;12.80;99.90
11067;DHT22;29763;50.904;5.530;2023-08-08T05:25:19;12.90;99.90
11067;DHT22;29763;50.904;5.530;2023-08-08T05:27:45;12.90;99.90
11067;DHT22;29763;50.904;5.530;2023-08-08T05:30:16;13.00;99.90
11067;DHT22;29763;50.904;5.530;2023-08-08T05:32:48;13.20;99.90
11067;DHT22;29763;50.904;5.530;2023-08-08T05:35:16;13.20;99.90
11067;DHT22;29763;50.904;5.530;2023-08-08T05:37:43;13.30;99.90
11067;DHT22;29763;50.904;5.530;2023-08-08T05:40:22;13.40;99.90
11067;DHT22;29763;50.904;5.530;2023-08-08T05:42:49;13.50;99.90
11067;DHT22;29763;50.904;5.530;2023-08-08T05:45:18;13.60;99.90
11067;DHT22;29763;50.904;5.530;2023-08-08T05:47:44;13.70;99.90
11067;DHT22;29763;50.904;5.530;2023-08-08T05:50:18;13.80;99.90
11067;DHT22;29763;50.904;5.530;2023-08-08T05:52:44;13.90;99.90
11067;DHT22;29763;50.904;5.530;2023-08-08T05:55:10;14.00;99.90
11067;DHT22;29763;50.904;5.530;2023-08-08T05:57:37;14.20;99.90
11067;DHT22;29763;50.904;5.530;2023-08-08T06:00:05;14.40;99.90
11067;DHT22;29763;50.904;5.530;2023-08-08T06:02:42;14.60;99.90
11067;DHT22;29763;50.904;5.530;2023-08-08T06:05:08;14.60;99.90
11067;DHT22;29763;50.904;5.530;2023-08-08T06:07:34;14.50;99.90
11067;DHT22;29763;50.904;5.530;2023-08-08T06:10:01;14.60;99.90
11067;DHT22;29763;50.904;5.530;2023-08-08T06:12:28;14.60;99.90
11067;DHT22;29763;50.904;5.530;2023-08-08T06:14:56;14.70;99.90
11067;DHT22;29763;50.904;5.530;2023-08-08T06:17:28;14.70;99.90
11067;DHT22;29763;50.904;5.530;2023-08-08T06:19:54;15.00;99.90
11067;DHT22;29763;50.904;5.530;2023-08-08T06:22:24;15.00;99.90
11067;DHT22;29763;50.904;5.530;2023-08-08T06:24:56;15.10;99.90
11067;DHT22;29763;50.904;5.530;2023-08-08T06:27:33;15.20;99.90
11067;DHT22;29763;50.904;5.530;2023-08-08T06:30:09;15.30;99.90
11067;DHT22;29763;50.904;5.530;2023-08-08T06:32:35;15.30;99.90
11067;DHT22;29763;50.904;5.530;2023-08-08T06:35:01;15.40;99.90
11067;DHT22;29763;50.904;5.530;2023-08-08T06:37:31;15.40;99.90
11067;DHT22;29763;50.904;5.530;2023-08-08T06:40:04;15.60;99.90
11067;DHT22;29763;50.904;5.530;2023-08-08T06:42:33;15.80;99.90
11067;DHT22;29763;50.904;5.530;2023-08-08T06:48:00;16.00;99.90
11067;DHT22;29763;50.904;5.530;2023-08-08T06:50:30;16.10;99.90
11067;DHT22;29763;50.904;5.530;2023-08-08T06:53:02;16.30;99.90
11067;DHT22;29763;50.904;5.530;2023-08-08T06:55:34;16.30;99.90
11067;DHT22;29763;50.904;5.530;2023-08-08T06:58:01;16.40;99.90
11067;DHT22;29763;50.904;5.530;2023-08-08T07:00:29;16.50;99.90
11067;DHT22;29763;50.904;5.530;2023-08-08T07:02:58;16.70;99.90
11067;DHT22;29763;50.904;5.530;2023-08-08T07:05:28;16.80;99.90
11067;DHT22;29763;50.904;5.530;2023-08-08T07:08:06;17.10;99.90
11067;DHT22;29763;50.904;5.530;2023-08-08T07:10:54;17.20;99.90
11067;DHT22;29763;50.904;5.530;2023-08-08T07:16:17;17.30;99.90
11067;DHT22;29763;50.904;5.530;2023-08-08T07:18:47;17.40;99.90
11067;DHT22;29763;50.904;5.530;2023-08-08T07:21:21;17.50;99.90
11067;DHT22;29763;50.904;5.530;2023-08-08T07:23:47;17.70;99.90
11067;DHT22;29763;50.904;5.530;2023-08-08T07:26:23;17.80;99.90
11067;DHT22;29763;50.904;5.530;2023-08-08T07:28:59;17.70;99.90
11067;DHT22;29763;50.904;5.530;2023-08-08T07:31:38;17.70;99.90
11067;DHT22;29763;50.904;5.530;2023-08-08T07:34:26;17.50;99.90
11067;DHT22;29763;50.904;5.530;2023-08-08T07:36:57;17.40;99.90
11067;DHT22;29763;50.904;5.530;2023-08-08T07:39:24;17.40;99.90
11067;DHT22;29763;50.904;5.530;2023-08-08T07:41:49;17.40;99.90
11067;DHT22;29763;50.904;5.530;2023-08-08T07:44:15;17.30;99.90
11067;DHT22;29763;50.904;5.530;2023-08-08T07:46:48;17.40;99.90
11067;DHT22;29763;50.904;5.530;2023-08-08T07:49:14;17.40;99.90
11067;DHT22;29763;50.904;5.530;2023-08-08T07:51:41;17.50;99.90
11067;DHT22;29763;50.904;5.530;2023-08-08T07:54:07;17.60;99.90
11067;DHT22;29763;50.904;5.530;2023-08-08T07:56:35;17.70;99.90
11067;DHT22;29763;50.904;5.530;2023-08-08T07:59:01;17.80;99.90
11067;DHT22;29763;50.904;5.530;2023-08-08T08:01:29;17.90;99.90
11067;DHT22;29763;50.904;5.530;2023-08-08T08:03:57;17.90;99.90
11067;DHT22;29763;50.904;5.530;2023-08-08T08:06:23;18.00;99.90
11067;DHT22;29763;50.904;5.530;2023-08-08T08:08:49;18.00;99.90
11067;DHT22;29763;50.904;5.530;2023-08-08T08:11:14;18.00;99.90
11067;DHT22;29763;50.904;5.530;2023-08-08T08:13:43;18.20;99.90
11067;DHT22;29763;50.904;5.530;2023-08-08T08:16:09;18.40;99.90
11067;DHT22;29763;50.904;5.530;2023-08-08T08:18:34;18.70;99.90
11067;DHT22;29763;50.904;5.530;2023-08-08T08:21:01;19.00;99.90
11067;DHT22;29763;50.904;5.530;2023-08-08T08:23:27;19.20;99.90
11067;DHT22;29763;50.904;5.530;2023-08-08T08:25:52;19.50;99.90
11067;DHT22;29763;50.904;5.530;2023-08-08T08:28:19;19.50;99.90
11067;DHT22;29763;50.904;5.530;2023-08-08T08:30:45;19.70;99.90
11067;DHT22;29763;50.904;5.530;2023-08-08T08:33:11;19.80;99.90
11067;DHT22;29763;50.904;5.530;2023-08-08T08:35:39;19.70;99.90
11067;DHT22;29763;50.904;5.530;2023-08-08T08:38:05;19.90;99.90
11067;DHT22;29763;50.904;5.530;2023-08-08T08:40:36;19.80;99.90
11067;DHT22;29763;50.904;5.530;2023-08-08T08:43:07;19.50;99.90
11067;DHT22;29763;50.904;5.530;2023-08-08T08:45:35;19.30;99.90
11067;DHT22;29763;50.904;5.530;2023-08-08T08:48:04;19.00;99.90
11067;DHT22;29763;50.904;5.530;2023-08-08T08:50:34;18.80;99.90
11067;DHT22;29763;50.904;5.530;2023-08-08T08:53:00;18.80;99.90
11067;DHT22;29763;50.904;5.530;2023-08-08T08:55:28;18.90;99.90
11067;DHT22;29763;50.904;5.530;2023-08-08T08:57:55;19.10;99.90
11067;DHT22;29763;50.904;5.530;2023-08-08T09:00:23;19.40;99.90
11067;DHT22;29763;50.904;5.530;2023-08-08T09:02:51;19.50;99.90
11067;DHT22;29763;50.904;5.530;2023-08-08T09:05:19;19.90;99.90
11067;DHT22;29763;50.904;5.530;2023-08-08T09:07:47;19.90;99.90
11067;DHT22;29763;50.904;5.530;2023-08-08T09:10:16;20.00;99.90
11067;DHT22;29763;50.904;5.530;2023-08-08T09:12:43;20.20;99.90
11067;DHT22;29763;50.904;5.530;2023-08-08T09:15:10;20.40;99.90
11067;DHT22;29763;50.904;5.530;2023-08-08T09:17:41;20.60;99.90
11067;DHT22;29763;50.904;5.530;2023-08-08T09:20:12;20.60;99.90
11067;DHT22;29763;50.904;5.530;2023-08-08T09:22:39;20.30;99.90
11067;DHT22;29763;50.904;5.530;2023-08-08T09:25:06;20.20;99.90
11067;DHT22;29763;50.904;5.530;2023-08-08T09:27:32;20.30;99.90
11067;DHT22;29763;50.904;5.530;2023-08-08T09:29:58;20.30;99.90
11067;DHT22;29763;50.904;5.530;2023-08-08T09:32:29;20.30;99.90
11067;DHT22;29763;50.904;5.530;2023-08-08T09:34:56;20.30;99.90
11067;DHT22;29763;50.904;5.530;2023-08-08T09:37:22;20.20;99.90
11067;DHT22;29763;50.904;5.530;2023-08-08T09:39:59;20.00;99.90
11067;DHT22;29763;50.904;5.530;2023-08-08T09:42:26;20.10;99.90
11067;DHT22;29763;50.904;5.530;2023-08-08T09:44:53;20.20;99.90
11067;DHT22;29763;50.904;5.530;2023-08-08T09:47:20;20.50;99.90
11067;DHT22;29763;50.904;5.530;2023-08-08T09:49:54;20.50;99.90
11067;DHT22;29763;50.904;5.530;2023-08-08T09:52:26;20.70;99.90
11067;DHT22;29763;50.904;5.530;2023-08-08T09:54:54;20.90;99.90
11067;DHT22;29763;50.904;5.530;2023-08-08T09:57:21;21.10;99.90
11067;DHT22;29763;50.904;5.530;2023-08-08T09:59:47;21.20;99.90
11067;DHT22;29763;50.904;5.530;2023-08-08T10:02:15;21.40;99.90
11067;DHT22;29763;50.904;5.530;2023-08-08T10:04:45;21.50;99.90
11067;DHT22;29763;50.904;5.530;2023-08-08T10:07:12;22.00;99.90
11067;DHT22;29763;50.904;5.530;2023-08-08T10:09:38;22.20;99.90
11067;DHT22;29763;50.904;5.530;2023-08-08T10:12:09;22.40;99.90
11067;DHT22;29763;50.904;5.530;2023-08-08T10:14:36;22.30;99.90
11067;DHT22;29763;50.904;5.530;2023-08-08T10:17:06;22.30;99.90
11067;DHT22;29763;50.904;5.530;2023-08-08T10:19:32;21.90;99.90
11067;DHT22;29763;50.904;5.530;2023-08-08T10:22:00;22.00;99.90
11067;DHT22;29763;50.904;5.530;2023-08-08T10:24:36;22.20;99.90
11067;DHT22;29763;50.904;5.530;2023-08-08T10:27:05;22.20;99.90
11067;DHT22;29763;50.904;5.530;2023-08-08T10:29:32;22.20;99.90
11067;DHT22;29763;50.904;5.530;2023-08-08T10:32:06;22.10;99.90
11067;DHT22;29763;50.904;5.530;2023-08-08T10:37:13;22.40;99.90
11067;DHT22;29763;50.904;5.530;2023-08-08T10:39:51;22.10;99.90
11067;DHT22;29763;50.904;5.530;2023-08-08T10:42:20;21.80;99.90
11067;DHT22;29763;50.904;5.530;2023-08-08T10:44:55;21.30;99.90
11067;DHT22;29763;50.904;5.530;2023-08-08T10:47:30;20.80;99.90
11067;DHT22;29763;50.904;5.530;2023-08-08T10:52:29;20.80;99.90
11067;DHT22;29763;50.904;5.530;2023-08-08T10:54:55;20.70;99.90
11067;DHT22;29763;50.904;5.530;2023-08-08T10:57:26;20.40;99.90
11067;DHT22;29763;50.904;5.530;2023-08-08T10:59:53;20.30;99.90
11067;DHT22;29763;50.904;5.530;2023-08-08T11:02:20;20.00;99.90
11067;DHT22;29763;50.904;5.530;2023-08-08T11:04:48;19.80;99.90
11067;DHT22;29763;50.904;5.530;2023-08-08T11:07:15;19.90;99.90
11067;DHT22;29763;50.904;5.530;2023-08-08T11:09:43;20.00;99.90
11067;DHT22;29763;50.904;5.530;2023-08-08T11:12:15;20.20;99.90
11067;DHT22;29763;50.904;5.530;2023-08-08T11:14:41;20.50;99.90
11067;DHT22;29763;50.904;5.530;2023-08-08T11:17:10;20.90;99.90
11067;DHT22;29763;50.904;5.530;2023-08-08T11:19:41;21.20;99.90
11067;DHT22;29763;50.904;5.530;2023-08-08T11:22:11;21.60;99.90
11067;DHT22;29763;50.904;5.530;2023-08-08T11:24:38;22.30;99.90
11067;DHT22;29763;50.904;5.530;2023-08-08T11:27:04;23.20;99.90
11067;DHT22;29763;50.904;5.530;2023-08-08T11:29:32;23.40;99.90
11067;DHT22;29763;50.904;5.530;2023-08-08T11:32:00;23.50;99.90
11067;DHT22;29763;50.904;5.530;2023-08-08T11:34:30;23.40;99.90
11067;DHT22;29763;50.904;5.530;2023-08-08T11:36:58;23.40;99.90
11067;DHT22;29763;50.904;5.530;2023-08-08T11:39:31;23.30;99.90
11067;DHT22;29763;50.904;5.530;2023-08-08T11:41:58;23.10;99.90
11067;DHT22;29763;50.904;5.530;2023-08-08T11:44:24;22.90;99.90
11067;DHT22;29763;50.904;5.530;2023-08-08T11:46:54;22.40;99.90
11067;DHT22;29763;50.904;5.530;2023-08-08T11:49:20;21.80;99.90
11067;DHT22;29763;50.904;5.530;2023-08-08T11:51:46;21.50;99.90
11067;DHT22;29763;50.904;5.530;2023-08-08T11:54:13;21.20;99.90
11067;DHT22;29763;50.904;5.530;2023-08-08T11:56:39;20.90;99.90
11067;DHT22;29763;50.904;5.530;2023-08-08T11:59:05;20.80;99.90
11067;DHT22;29763;50.904;5.530;2023-08-08T12:01:33;20.70;99.90
11067;DHT22;29763;50.904;5.530;2023-08-08T12:04:09;20.50;99.90
11067;DHT22;29763;50.904;5.530;2023-08-08T12:06:37;20.30;99.90
11067;DHT22;29763;50.904;5.530;2023-08-08T12:09:14;20.00;99.90
11067;DHT22;29763;50.904;5.530;2023-08-08T12:11:42;19.70;99.90
11067;DHT22;29763;50.904;5.530;2023-08-08T12:14:10;19.30;99.90
11067;DHT22;29763;50.904;5.530;2023-08-08T12:16:39;19.10;99.90
11067;DHT22;29763;50.904;5.530;2023-08-08T12:19:07;19.00;99.90
11067;DHT22;29763;50.904;5.530;2023-08-08T12:21:38;18.80;99.90
11067;DHT22;29763;50.904;5.530;2023-08-08T12:24:04;18.70;99.90
11067;DHT22;29763;50.904;5.530;2023-08-08T12:26:29;18.90;99.90
11067;DHT22;29763;50.904;5.530;2023-08-08T12:28:55;19.70;99.90
11067;DHT22;29763;50.904;5.530;2023-08-08T12:31:21;20.30;99.90
11067;DHT22;29763;50.904;5.530;2023-08-08T12:33:46;20.70;99.90
11067;DHT22;29763;50.904;5.530;2023-08-08T12:36:14;20.80;99.90
11067;DHT22;29763;50.904;5.530;2023-08-08T12:38:40;20.70;99.90
11067;DHT22;29763;50.904;5.530;2023-08-08T12:41:05;20.70;99.90
11067;DHT22;29763;50.904;5.530;2023-08-08T12:43:32;20.80;99.90
11067;DHT22;29763;50.904;5.530;2023-08-08T12:45:59;21.20;99.90
11067;DHT22;29763;50.904;5.530;2023-08-08T12:48:26;21.40;99.90
11067;DHT22;29763;50.904;5.530;2023-08-08T12:50:53;21.60;99.90
11067;DHT22;29763;50.904;5.530;2023-08-08T12:53:19;21.90;99.90
11067;DHT22;29763;50.904;5.530;2023-08-08T12:55:46;22.60;99.90
11067;DHT22;29763;50.904;5.530;2023-08-08T12:58:11;23.30;99.90
11067;DHT22;29763;50.904;5.530;2023-08-08T13:00:39;23.60;99.90
11067;DHT22;29763;50.904;5.530;2023-08-08T13:03:04;24.60;99.90
11067;DHT22;29763;50.904;5.530;2023-08-08T13:05:31;25.30;99.90
11067;DHT22;29763;50.904;5.530;2023-08-08T13:07:57;25.30;99.90
11067;DHT22;29763;50.904;5.530;2023-08-08T13:10:23;25.30;99.90
11067;DHT22;29763;50.904;5.530;2023-08-08T13:12:48;25.20;99.90
11067;DHT22;29763;50.904;5.530;2023-08-08T13:15:14;24.80;99.90
11067;DHT22;29763;50.904;5.530;2023-08-08T13:17:40;24.30;99.90
11067;DHT22;29763;50.904;5.530;2023-08-08T13:20:08;23.80;99.90
11067;DHT22;29763;50.904;5.530;2023-08-08T13:22:41;23.50;99.90
11067;DHT22;29763;50.904;5.530;2023-08-08T13:25:09;23.60;99.90
11067;DHT22;29763;50.904;5.530;2023-08-08T13:27:41;23.50;99.90
11067;DHT22;29763;50.904;5.530;2023-08-08T13:30:09;23.60;99.90
11067;DHT22;29763;50.904;5.530;2023-08-08T13:32:35;23.50;99.90
11067;DHT22;29763;50.904;5.530;2023-08-08T13:35:01;23.70;99.90
11067;DHT22;29763;50.904;5.530;2023-08-08T13:37:26;24.20;99.90
11067;DHT22;29763;50.904;5.530;2023-08-08T13:39:52;24.90;99.90
11067;DHT22;29763;50.904;5.530;2023-08-08T13:42:19;25.40;99.90
11067;DHT22;29763;50.904;5.530;2023-08-08T13:44:45;25.70;99.90
11067;DHT22;29763;50.904;5.530;2023-08-08T13:47:10;25.90;99.90
11067;DHT22;29763;50.904;5.530;2023-08-08T13:49:36;25.80;99.90
11067;DHT22;29763;50.904;5.530;2023-08-08T13:52:03;25.80;99.90
11067;DHT22;29763;50.904;5.530;2023-08-08T13:54:29;25.70;99.90
11067;DHT22;29763;50.904;5.530;2023-08-08T13:56:55;25.60;99.90
11067;DHT22;29763;50.904;5.530;2023-08-08T13:59:20;25.80;99.90
11067;DHT22;29763;50.904;5.530;2023-08-08T14:01:46;26.10;99.90
11067;DHT22;29763;50.904;5.530;2023-08-08T14:04:12;25.80;99.90
11067;DHT22;29763;50.904;5.530;2023-08-08T14:06:38;25.50;99.90
11067;DHT22;29763;50.904;5.530;2023-08-08T14:09:03;25.40;99.90
11067;DHT22;29763;50.904;5.530;2023-08-08T14:11:29;25.10;99.90
11067;DHT22;29763;50.904;5.530;2023-08-08T14:13:55;25.00;99.90
11067;DHT22;29763;50.904;5.530;2023-08-08T14:16:21;24.60;99.90
11067;DHT22;29763;50.904;5.530;2023-08-08T14:18:46;24.10;99.90
11067;DHT22;29763;50.904;5.530;2023-08-08T14:21:14;23.80;99.90
11067;DHT22;29763;50.904;5.530;2023-08-08T14:23:43;23.50;99.90
11067;DHT22;29763;50.904;5.530;2023-08-08T14:26:09;23.10;99.90
11067;DHT22;29763;50.904;5.530;2023-08-08T14:28:41;22.90;99.90
11067;DHT22;29763;50.904;5.530;2023-08-08T14:31:06;22.70;99.90
11067;DHT22;29763;50.904;5.530;2023-08-08T14:33:33;22.60;99.90
11067;DHT22;29763;50.904;5.530;2023-08-08T14:36:00;22.60;99.90
11067;DHT22;29763;50.904;5.530;2023-08-08T14:38:34;22.80;99.90
11067;DHT22;29763;50.904;5.530;2023-08-08T14:41:00;23.00;99.90
11067;DHT22;29763;50.904;5.530;2023-08-08T14:43:25;22.90;99.90
11067;DHT22;29763;50.904;5.530;2023-08-08T14:45:52;22.80;99.90
11067;DHT22;29763;50.904;5.530;2023-08-08T14:48:17;22.70;99.90
11067;DHT22;29763;50.904;5.530;2023-08-08T14:50:44;22.70;99.90
11067;DHT22;29763;50.904;5.530;2023-08-08T14:53:09;22.60;99.90
11067;DHT22;29763;50.904;5.530;2023-08-08T14:55:36;22.50;99.90
11067;DHT22;29763;50.904;5.530;2023-08-08T14:58:02;22.50;99.90
11067;DHT22;29763;50.904;5.530;2023-08-08T15:00:28;22.40;99.90
11067;DHT22;29763;50.904;5.530;2023-08-08T15:02:54;22.40;99.90
11067;DHT22;29763;50.904;5.530;2023-08-08T15:05:20;22.50;99.90
11067;DHT22;29763;50.904;5.530;2023-08-08T15:07:46;22.60;99.90
11067;DHT22;29763;50.904;5.530;2023-08-08T15:10:12;22.60;99.90
11067;DHT22;29763;50.904;5.530;2023-08-08T15:12:38;22.40;99.90
11067;DHT22;29763;50.904;5.530;2023-08-08T15:15:05;22.20;99.90
11067;DHT22;29763;50.904;5.530;2023-08-08T15:17:32;22.30;99.90
11067;DHT22;29763;50.904;5.530;2023-08-08T15:20:00;22.50;99.90
11067;DHT22;29763;50.904;5.530;2023-08-08T15:22:26;22.30;99.90
11067;DHT22;29763;50.904;5.530;2023-08-08T15:24:52;22.30;99.90
11067;DHT22;29763;50.904;5.530;2023-08-08T15:27:20;22.50;99.90
11067;DHT22;29763;50.904;5.530;2023-08-08T15:29:47;22.80;99.90
11067;DHT22;29763;50.904;5.530;2023-08-08T15:32:13;23.00;99.90
11067;DHT22;29763;50.904;5.530;2023-08-08T15:34:38;23.20;99.90
11067;DHT22;29763;50.904;5.530;2023-08-08T15:37:04;23.00;99.90
11067;DHT22;29763;50.904;5.530;2023-08-08T15:39:31;22.90;99.90
11067;DHT22;29763;50.904;5.530;2023-08-08T15:41:57;23.20;99.90
11067;DHT22;29763;50.904;5.530;2023-08-08T15:44:23;23.10;99.90
11067;DHT22;29763;50.904;5.530;2023-08-08T15:46:49;23.20;99.90
11067;DHT22;29763;50.904;5.530;2023-08-08T15:49:14;23.30;99.90